Details for AirAsia Indonesia at WIII




Go Back


Latest METAR
Local Time

WIII 181330Z VRB02KT 7000 SCT021 30/17 Q1011 NOSIG
18/09/2018, 20:33:12

Description
Results
AirAsia Indonesia Logo
Number of Pilots based at WIII
0 Pilots Based here
Number of AirAsia Indonesia Flights Departed from WIII
0 Flights Departed
Number of AirAsia Indonesia Flights Arrived at WIII
0 Flights Arrived
Number of AirAsia Indonesia Schedules Departing from WIII
18 Schedules
Number of AirAsia Indonesia Schedules Arriving at WIII
19 Schedules
Number of AirAsia Indonesia Schedules Departing from WIII availible today
18 Schedules Today
Number of AirAsia Indonesia Schedules Arriving at WIII availible today
18 Schedules Today
Average Landing Rate at WIII
-246 fpm
AirAsia Indonesia Average Landing Rate at WIII
0 fpm
Total Fuel Purchased at WIII by AirAsia Indonesia
0.00 kgs / 0.00 lbs

Pilots Based at WIII


Pilot ID
Pilot Name
Pilot Rank
No. of Flights
No. of Flying Hours
There are no pilots assigned to this hub!   Will you be the first?
Content